sensor_id;sensor_type;location;lat;lon;timestamp;pressure;altitude;pressure_sealevel;temperature;humidity
59289;BME280;45056;47.602;9.886;2022-10-17T00:01:10;93596.16;;;14.68;61.08
59289;BME280;45056;47.602;9.886;2022-10-17T00:03:39;93593.06;;;14.66;61.15
59289;BME280;45056;47.602;9.886;2022-10-17T00:06:10;93592.78;;;14.64;60.96
59289;BME280;45056;47.602;9.886;2022-10-17T00:08:41;93595.50;;;14.64;60.97
59289;BME280;45056;47.602;9.886;2022-10-17T00:11:15;93594.44;;;14.61;60.91
59289;BME280;45056;47.602;9.886;2022-10-17T00:13:46;93596.09;;;14.58;60.86
59289;BME280;45056;47.602;9.886;2022-10-17T00:16:22;93589.09;;;14.57;61.20
59289;BME280;45056;47.602;9.886;2022-10-17T00:18:51;93592.75;;;14.54;61.37
59289;BME280;45056;47.602;9.886;2022-10-17T00:21:20;93596.38;;;14.51;61.18
59289;BME280;45056;47.602;9.886;2022-10-17T00:23:51;93598.81;;;14.49;61.33
59289;BME280;45056;47.602;9.886;2022-10-17T00:26:20;93602.78;;;14.48;61.30
59289;BME280;45056;47.602;9.886;2022-10-17T00:28:51;93605.19;;;14.46;61.13
59289;BME280;45056;47.602;9.886;2022-10-17T00:31:21;93615.06;;;14.43;61.13
59289;BME280;45056;47.602;9.886;2022-10-17T00:33:51;93611.25;;;14.41;61.26
59289;BME280;45056;47.602;9.886;2022-10-17T00:36:21;93615.66;;;14.38;61.31
59289;BME280;45056;47.602;9.886;2022-10-17T00:38:55;93616.44;;;14.39;61.40
59289;BME280;45056;47.602;9.886;2022-10-17T00:41:26;93608.66;;;14.37;61.39
59289;BME280;45056;47.602;9.886;2022-10-17T00:43:58;93610.00;;;14.33;61.55
59289;BME280;45056;47.602;9.886;2022-10-17T00:46:29;93609.84;;;14.27;61.59
59289;BME280;45056;47.602;9.886;2022-10-17T00:49:03;93604.78;;;14.25;61.55
59289;BME280;45056;47.602;9.886;2022-10-17T00:51:40;93600.09;;;14.26;61.53
59289;BME280;45056;47.602;9.886;2022-10-17T00:54:15;93599.31;;;14.25;61.65
59289;BME280;45056;47.602;9.886;2022-10-17T00:56:46;93592.31;;;14.24;61.08
59289;BME280;45056;47.602;9.886;2022-10-17T00:59:19;93598.09;;;14.26;61.18
59289;BME280;45056;47.602;9.886;2022-10-17T01:01:55;93598.56;;;14.25;61.27
59289;BME280;45056;47.602;9.886;2022-10-17T01:04:28;93600.53;;;14.24;61.37
59289;BME280;45056;47.602;9.886;2022-10-17T01:06:57;93596.75;;;14.22;61.24
59289;BME280;45056;47.602;9.886;2022-10-17T01:09:27;93598.38;;;14.19;61.43
59289;BME280;45056;47.602;9.886;2022-10-17T01:12:01;93601.56;;;14.18;61.45
59289;BME280;45056;47.602;9.886;2022-10-17T01:14:49;93603.97;;;14.16;61.75
59289;BME280;45056;47.602;9.886;2022-10-17T01:17:37;93608.25;;;14.17;61.64
59289;BME280;45056;47.602;9.886;2022-10-17T01:20:34;93606.28;;;14.17;61.77
59289;BME280;45056;47.602;9.886;2022-10-17T01:23:41;93603.66;;;14.13;61.88
59289;BME280;45056;47.602;9.886;2022-10-17T01:26:32;93608.53;;;14.09;61.98
59289;BME280;45056;47.602;9.886;2022-10-17T01:29:32;93610.50;;;14.09;61.94
59289;BME280;45056;47.602;9.886;2022-10-17T01:32:18;93610.94;;;14.07;61.83
59289;BME280;45056;47.602;9.886;2022-10-17T01:34:56;93612.63;;;14.05;61.75
59289;BME280;45056;47.602;9.886;2022-10-17T01:37:33;93610.00;;;14.01;61.85
59289;BME280;45056;47.602;9.886;2022-10-17T01:40:13;93604.66;;;13.97;61.86
59289;BME280;45056;47.602;9.886;2022-10-17T01:42:53;93599.97;;;13.98;62.02
59289;BME280;45056;47.602;9.886;2022-10-17T01:45:31;93599.19;;;13.97;61.97
59289;BME280;45056;47.602;9.886;2022-10-17T01:48:10;93596.13;;;13.95;61.91
59289;BME280;45056;47.602;9.886;2022-10-17T01:50:49;93601.28;;;13.93;61.65
59289;BME280;45056;47.602;9.886;2022-10-17T01:53:29;93590.03;;;13.91;61.66
59289;BME280;45056;47.602;9.886;2022-10-17T01:56:05;93590.94;;;13.88;61.56
59289;BME280;45056;47.602;9.886;2022-10-17T01:58:42;93585.56;;;13.84;61.79
59289;BME280;45056;47.602;9.886;2022-10-17T02:01:16;93573.69;;;13.78;61.88
59289;BME280;45056;47.602;9.886;2022-10-17T02:03:51;93575.91;;;13.70;62.12
59289;BME280;45056;47.602;9.886;2022-10-17T02:06:21;93580.44;;;13.64;62.44
59289;BME280;45056;47.602;9.886;2022-10-17T02:08:50;93571.50;;;13.64;62.57
59289;BME280;45056;47.602;9.886;2022-10-17T02:11:21;93571.91;;;13.62;62.71
59289;BME280;45056;47.602;9.886;2022-10-17T02:14:10;93572.25;;;13.64;62.24
59289;BME280;45056;47.602;9.886;2022-10-17T02:16:58;93565.25;;;13.63;62.38
59289;BME280;45056;47.602;9.886;2022-10-17T02:19:54;93571.03;;;13.65;61.90
59289;BME280;45056;47.602;9.886;2022-10-17T02:22:40;93563.59;;;13.66;61.94
59289;BME280;45056;47.602;9.886;2022-10-17T02:25:26;93554.94;;;13.67;62.04
59289;BME280;45056;47.602;9.886;2022-10-17T02:28:09;93558.00;;;13.69;61.95
59289;BME280;45056;47.602;9.886;2022-10-17T02:30:54;93556.03;;;13.70;62.02
59289;BME280;45056;47.602;9.886;2022-10-17T02:33:32;93561.03;;;13.71;61.98
59289;BME280;45056;47.602;9.886;2022-10-17T02:36:13;93561.94;;;13.68;61.63
59289;BME280;45056;47.602;9.886;2022-10-17T02:38:46;93558.56;;;13.64;61.67
59289;BME280;45056;47.602;9.886;2022-10-17T02:41:18;93564.03;;;13.64;61.73
59289;BME280;45056;47.602;9.886;2022-10-17T02:43:51;93556.28;;;13.63;61.62
59289;BME280;45056;47.602;9.886;2022-10-17T02:46:23;93570.41;;;13.61;61.66
59289;BME280;45056;47.602;9.886;2022-10-17T02:49:02;93568.56;;;13.58;61.71
59289;BME280;45056;47.602;9.886;2022-10-17T02:51:44;93571.72;;;13.56;61.56
59289;BME280;45056;47.602;9.886;2022-10-17T02:54:23;93577.66;;;13.55;61.67
59289;BME280;45056;47.602;9.886;2022-10-17T02:57:02;93578.88;;;13.54;61.57
59289;BME280;45056;47.602;9.886;2022-10-17T02:59:39;93577.03;;;13.51;61.63
59289;BME280;45056;47.602;9.886;2022-10-17T03:02:10;93572.44;;;13.48;61.57
59289;BME280;45056;47.602;9.886;2022-10-17T03:04:42;93567.09;;;13.44;61.57
59289;BME280;45056;47.602;9.886;2022-10-17T03:07:12;93562.88;;;13.30;61.50
59289;BME280;45056;47.602;9.886;2022-10-17T03:09:40;93574.16;;;13.19;61.73
59289;BME280;45056;47.602;9.886;2022-10-17T03:12:08;93570.03;;;13.15;62.06
59289;BME280;45056;47.602;9.886;2022-10-17T03:14:36;93572.88;;;13.11;62.13
59289;BME280;45056;47.602;9.886;2022-10-17T03:17:04;93569.72;;;13.12;62.14
59289;BME280;45056;47.602;9.886;2022-10-17T03:19:33;93574.88;;;13.10;61.92
59289;BME280;45056;47.602;9.886;2022-10-17T03:22:01;93581.84;;;13.11;61.75
59289;BME280;45056;47.602;9.886;2022-10-17T03:24:32;93587.75;;;13.10;61.93
59289;BME280;45056;47.602;9.886;2022-10-17T03:27:00;93585.03;;;13.10;62.05
59289;BME280;45056;47.602;9.886;2022-10-17T03:29:28;93588.94;;;13.09;62.37
59289;BME280;45056;47.602;9.886;2022-10-17T03:31:56;93599.09;;;13.08;62.37
59289;BME280;45056;47.602;9.886;2022-10-17T03:34:25;93608.50;;;13.07;62.27
59289;BME280;45056;47.602;9.886;2022-10-17T03:36:53;93603.03;;;13.07;62.10
59289;BME280;45056;47.602;9.886;2022-10-17T03:39:21;93609.28;;;13.08;61.81
59289;BME280;45056;47.602;9.886;2022-10-17T03:41:51;93613.22;;;13.07;61.73
59289;BME280;45056;47.602;9.886;2022-10-17T03:44:19;93601.97;;;13.05;61.87
59289;BME280;45056;47.602;9.886;2022-10-17T03:46:47;93602.53;;;12.99;61.51
59289;BME280;45056;47.602;9.886;2022-10-17T03:49:15;93596.22;;;12.90;61.76
59289;BME280;45056;47.602;9.886;2022-10-17T03:51:43;93600.25;;;12.85;61.97
59289;BME280;45056;47.602;9.886;2022-10-17T03:54:12;93612.38;;;12.84;62.25
59289;BME280;45056;47.602;9.886;2022-10-17T03:56:40;93613.16;;;12.84;62.13
59289;BME280;45056;47.602;9.886;2022-10-17T03:59:12;93613.16;;;12.84;62.17
59289;BME280;45056;47.602;9.886;2022-10-17T04:01:41;93612.84;;;12.82;62.09
59289;BME280;45056;47.602;9.886;2022-10-17T04:04:10;93606.94;;;12.84;62.21
59289;BME280;45056;47.602;9.886;2022-10-17T04:06:38;93611.97;;;12.86;62.08
59289;BME280;45056;47.602;9.886;2022-10-17T04:09:06;93613.16;;;12.84;62.10
59289;BME280;45056;47.602;9.886;2022-10-17T04:11:34;93613.50;;;12.87;61.99
59289;BME280;45056;47.602;9.886;2022-10-17T04:14:03;93616.22;;;12.87;62.15
59289;BME280;45056;47.602;9.886;2022-10-17T04:16:32;93623.94;;;12.88;61.96
59289;BME280;45056;47.602;9.886;2022-10-17T04:19:01;93624.41;;;12.87;62.05
59289;BME280;45056;47.602;9.886;2022-10-17T04:21:42;93614.78;;;12.82;62.07
59289;BME280;45056;47.602;9.886;2022-10-17T04:24:33;93625.19;;;12.74;62.39
59289;BME280;45056;47.602;9.886;2022-10-17T04:27:04;93630.31;;;12.72;62.53
59289;BME280;45056;47.602;9.886;2022-10-17T04:29:41;93631.09;;;12.73;62.43
59289;BME280;45056;47.602;9.886;2022-10-17T04:32:12;93627.59;;;12.72;62.34
59289;BME280;45056;47.602;9.886;2022-10-17T04:34:40;93632.38;;;12.68;62.29
59289;BME280;45056;47.602;9.886;2022-10-17T04:37:10;93643.09;;;12.62;62.17
59289;BME280;45056;47.602;9.886;2022-10-17T04:39:41;93645.81;;;12.62;62.44
59289;BME280;45056;47.602;9.886;2022-10-17T04:42:20;93645.06;;;12.62;62.55
59289;BME280;45056;47.602;9.886;2022-10-17T04:44:48;93653.25;;;12.62;62.34
59289;BME280;45056;47.602;9.886;2022-10-17T04:47:18;93652.06;;;12.63;62.26
59289;BME280;45056;47.602;9.886;2022-10-17T04:49:52;93654.00;;;12.62;62.14
59289;BME280;45056;47.602;9.886;2022-10-17T04:52:40;93656.00;;;12.62;62.20
59289;BME280;45056;47.602;9.886;2022-10-17T04:55:09;93650.53;;;12.62;62.35
59289;BME280;45056;47.602;9.886;2022-10-17T04:57:39;93651.72;;;12.61;62.23
59289;BME280;45056;47.602;9.886;2022-10-17T05:00:12;93664.19;;;12.62;62.25
59289;BME280;45056;47.602;9.886;2022-10-17T05:02:45;93656.00;;;12.62;62.28
59289;BME280;45056;47.602;9.886;2022-10-17T05:05:14;93656.88;;;12.59;61.95
59289;BME280;45056;47.602;9.886;2022-10-17T05:07:42;93649.56;;;12.55;62.03
59289;BME280;45056;47.602;9.886;2022-10-17T05:10:11;93654.69;;;12.53;61.93
59289;BME280;45056;47.602;9.886;2022-10-17T05:12:39;93655.09;;;12.52;61.90
59289;BME280;45056;47.602;9.886;2022-10-17T05:15:14;93654.34;;;12.51;61.87
59289;BME280;45056;47.602;9.886;2022-10-17T05:17:42;93662.22;;;12.49;61.80
59289;BME280;45056;47.602;9.886;2022-10-17T05:20:15;93659.13;;;12.47;62.04
59289;BME280;45056;47.602;9.886;2022-10-17T05:23:14;93653.34;;;12.45;61.69
59289;BME280;45056;47.602;9.886;2022-10-17T05:25:43;93658.06;;;12.45;61.84
59289;BME280;45056;47.602;9.886;2022-10-17T05:28:11;93653.03;;;12.43;62.01
59289;BME280;45056;47.602;9.886;2022-10-17T05:30:56;93661.22;;;12.43;61.75
59289;BME280;45056;47.602;9.886;2022-10-17T05:33:28;93647.56;;;12.43;62.14
59289;BME280;45056;47.602;9.886;2022-10-17T05:35:59;93653.81;;;12.44;61.88
59289;BME280;45056;47.602;9.886;2022-10-17T05:38:28;93655.75;;;12.43;61.58
59289;BME280;45056;47.602;9.886;2022-10-17T05:41:04;93666.66;;;12.43;61.80
59289;BME280;45056;47.602;9.886;2022-10-17T05:43:34;93661.66;;;12.41;61.72
59289;BME280;45056;47.602;9.886;2022-10-17T05:46:04;93662.09;;;12.40;61.86
59289;BME280;45056;47.602;9.886;2022-10-17T05:48:35;93671.47;;;12.39;61.93
59289;BME280;45056;47.602;9.886;2022-10-17T05:51:09;93660.22;;;12.37;61.92
59289;BME280;45056;47.602;9.886;2022-10-17T05:53:40;93675.06;;;12.36;61.91
59289;BME280;45056;47.602;9.886;2022-10-17T05:56:13;93678.59;;;12.36;62.10
59289;BME280;45056;47.602;9.886;2022-10-17T05:58:46;93675.53;;;12.34;61.78
59289;BME280;45056;47.602;9.886;2022-10-17T06:01:18;93685.66;;;12.34;61.74
59289;BME280;45056;47.602;9.886;2022-10-17T06:03:49;93696.56;;;12.34;61.88
59289;BME280;45056;47.602;9.886;2022-10-17T06:06:20;93692.00;;;12.31;61.99
59289;BME280;45056;47.602;9.886;2022-10-17T06:08:51;93692.84;;;12.27;62.10
59289;BME280;45056;47.602;9.886;2022-10-17T06:11:22;93694.06;;;12.26;62.23
59289;BME280;45056;47.602;9.886;2022-10-17T06:13:58;93695.13;;;12.29;62.25
59289;BME280;45056;47.602;9.886;2022-10-17T06:16:29;93699.72;;;12.32;62.16
59289;BME280;45056;47.602;9.886;2022-10-17T06:19:10;93700.50;;;12.33;62.18
59289;BME280;45056;47.602;9.886;2022-10-17T06:21:40;93700.50;;;12.33;62.31
59289;BME280;45056;47.602;9.886;2022-10-17T06:24:09;93707.50;;;12.34;62.48
59289;BME280;45056;47.602;9.886;2022-10-17T06:26:42;93707.81;;;12.36;62.33
59289;BME280;45056;47.602;9.886;2022-10-17T06:29:18;93706.28;;;12.35;62.23
59289;BME280;45056;47.602;9.886;2022-10-17T06:31:46;93707.81;;;12.36;62.17
59289;BME280;45056;47.602;9.886;2022-10-17T06:34:21;93717.13;;;12.38;62.17
59289;BME280;45056;47.602;9.886;2022-10-17T06:36:52;93723.97;;;12.43;62.28
59289;BME280;45056;47.602;9.886;2022-10-17T06:39:29;93727.03;;;12.45;62.15
59289;BME280;45056;47.602;9.886;2022-10-17T06:42:08;93720.28;;;12.50;62.51
59289;BME280;45056;47.602;9.886;2022-10-17T06:44:43;93723.78;;;12.50;62.47
59289;BME280;45056;47.602;9.886;2022-10-17T06:47:11;93724.13;;;12.52;62.56
59289;BME280;45056;47.602;9.886;2022-10-17T06:49:39;93719.75;;;12.55;62.75
59289;BME280;45056;47.602;9.886;2022-10-17T06:52:16;93729.69;;;12.62;62.58
59289;BME280;45056;47.602;9.886;2022-10-17T06:54:47;93727.63;;;12.66;62.72
59289;BME280;45056;47.602;9.886;2022-10-17T06:57:17;93733.72;;;12.70;62.88
59289;BME280;45056;47.602;9.886;2022-10-17T06:59:47;93735.91;;;12.75;62.91
59289;BME280;45056;47.602;9.886;2022-10-17T07:02:15;93733.41;;;12.81;63.32
59289;BME280;45056;47.602;9.886;2022-10-17T07:04:44;93741.06;;;12.86;63.04
59289;BME280;45056;47.602;9.886;2022-10-17T07:07:14;93733.09;;;12.92;63.27
59289;BME280;45056;47.602;9.886;2022-10-17T07:09:42;93748.06;;;13.00;63.07
59289;BME280;45056;47.602;9.886;2022-10-17T07:12:10;93745.88;;;13.08;62.96
59289;BME280;45056;47.602;9.886;2022-10-17T07:14:44;93751.88;;;13.16;62.81
59289;BME280;45056;47.602;9.886;2022-10-17T07:17:12;93753.19;;;13.24;62.75
59289;BME280;45056;47.602;9.886;2022-10-17T07:19:41;93755.69;;;13.31;62.65
59289;BME280;45056;47.602;9.886;2022-10-17T07:22:10;93756.97;;;13.39;62.80
59289;BME280;45056;47.602;9.886;2022-10-17T07:24:41;93768.06;;;13.49;62.63
59289;BME280;45056;47.602;9.886;2022-10-17T07:27:09;93758.41;;;13.57;62.34
59289;BME280;45056;47.602;9.886;2022-10-17T07:29:37;93771.41;;;13.66;62.13
59289;BME280;45056;47.602;9.886;2022-10-17T07:32:07;93772.28;;;13.76;61.92
59289;BME280;45056;47.602;9.886;2022-10-17T07:34:36;93775.84;;;13.85;61.61
59289;BME280;45056;47.602;9.886;2022-10-17T07:37:04;93772.09;;;13.92;61.47
59289;BME280;45056;47.602;9.886;2022-10-17T07:39:33;93767.91;;;14.00;61.29
59289;BME280;45056;47.602;9.886;2022-10-17T07:42:03;93769.53;;;14.11;60.31
59289;BME280;45056;47.602;9.886;2022-10-17T07:44:34;93765.97;;;14.23;59.95
59289;BME280;45056;47.602;9.886;2022-10-17T07:47:05;93778.84;;;14.36;59.82
59289;BME280;45056;47.602;9.886;2022-10-17T07:49:36;93775.00;;;14.55;59.89
59289;BME280;45056;47.602;9.886;2022-10-17T07:52:08;93777.72;;;14.78;59.86
59289;BME280;45056;47.602;9.886;2022-10-17T07:54:37;93791.22;;;14.94;59.39
59289;BME280;45056;47.602;9.886;2022-10-17T07:57:08;93786.88;;;15.06;59.05
59289;BME280;45056;47.602;9.886;2022-10-17T07:59:37;93791.94;;;15.17;58.60
59289;BME280;45056;47.602;9.886;2022-10-17T08:02:17;93789.22;;;15.26;58.16
59289;BME280;45056;47.602;9.886;2022-10-17T08:04:48;93791.25;;;15.35;57.64
59289;BME280;45056;47.602;9.886;2022-10-17T08:07:19;93790.84;;;15.46;56.18
59289;BME280;45056;47.602;9.886;2022-10-17T08:10:06;93804.41;;;15.59;54.35
59289;BME280;45056;47.602;9.886;2022-10-17T08:12:58;93802.31;;;15.72;52.91
59289;BME280;45056;47.602;9.886;2022-10-17T08:15:49;93789.56;;;15.88;52.78
59289;BME280;45056;47.602;9.886;2022-10-17T08:18:41;93800.25;;;16.05;52.69
59289;BME280;45056;47.602;9.886;2022-10-17T08:21:22;93785.63;;;16.17;52.93
59289;BME280;45056;47.602;9.886;2022-10-17T08:24:23;93798.75;;;16.32;52.00
59289;BME280;45056;47.602;9.886;2022-10-17T08:27:07;93793.09;;;16.44;51.91
59289;BME280;45056;47.602;9.886;2022-10-17T08:30:08;93790.03;;;16.61;51.33
59289;BME280;45056;47.602;9.886;2022-10-17T08:35:59;93795.31;;;16.93;50.01
59289;BME280;45056;47.602;9.886;2022-10-17T08:38:55;93784.75;;;17.10;48.49
59289;BME280;45056;47.602;9.886;2022-10-17T08:41:42;93802.88;;;17.26;48.26
59289;BME280;45056;47.602;9.886;2022-10-17T08:44:40;93789.22;;;17.41;46.91
59289;BME280;45056;47.602;9.886;2022-10-17T08:47:34;93804.28;;;17.55;45.34
59289;BME280;45056;47.602;9.886;2022-10-17T08:50:44;93802.25;;;17.65;45.22
59289;BME280;45056;47.602;9.886;2022-10-17T08:53:39;93808.16;;;17.72;44.17
59289;BME280;45056;47.602;9.886;2022-10-17T08:56:38;93806.00;;;17.77;43.76
59289;BME280;45056;47.602;9.886;2022-10-17T08:59:20;93806.59;;;17.81;43.84
59289;BME280;45056;47.602;9.886;2022-10-17T09:02:05;93797.69;;;17.86;44.13
59289;BME280;45056;47.602;9.886;2022-10-17T09:08:09;93799.44;;;17.98;44.43
59289;BME280;45056;47.602;9.886;2022-10-17T09:10:54;93799.13;;;18.06;43.99
59289;BME280;45056;47.602;9.886;2022-10-17T09:14:00;93800.59;;;18.16;43.64
59289;BME280;45056;47.602;9.886;2022-10-17T09:17:08;93798.34;;;18.29;43.51
59289;BME280;45056;47.602;9.886;2022-10-17T09:20:08;93811.56;;;18.40;44.17
59289;BME280;45056;47.602;9.886;2022-10-17T09:23:03;93817.50;;;18.48;44.81
59289;BME280;45056;47.602;9.886;2022-10-17T09:25:51;93800.59;;;18.55;45.50
59289;BME280;45056;47.602;9.886;2022-10-17T09:28:40;93811.22;;;18.63;45.79
59289;BME280;45056;47.602;9.886;2022-10-17T09:31:23;93806.13;;;18.70;45.41
59289;BME280;45056;47.602;9.886;2022-10-17T09:34:28;93816.31;;;18.79;45.36
59289;BME280;45056;47.602;9.886;2022-10-17T09:37:31;93813.44;;;18.88;45.29
59289;BME280;45056;47.602;9.886;2022-10-17T09:40:18;93815.34;;;18.97;46.66
59289;BME280;45056;47.602;9.886;2022-10-17T09:43:03;93820.78;;;19.07;48.49
59289;BME280;45056;47.602;9.886;2022-10-17T09:45:58;93812.13;;;19.14;49.35
59289;BME280;45056;47.602;9.886;2022-10-17T09:48:44;93822.53;;;19.19;50.19
59289;BME280;45056;47.602;9.886;2022-10-17T09:51:36;93823.66;;;19.27;50.44
59289;BME280;45056;47.602;9.886;2022-10-17T09:54:21;93822.47;;;19.34;50.45
59289;BME280;45056;47.602;9.886;2022-10-17T09:57:18;93825.16;;;19.43;49.74
59289;BME280;45056;47.602;9.886;2022-10-17T10:00:06;93825.53;;;19.51;49.67
59289;BME280;45056;47.602;9.886;2022-10-17T10:03:07;93825.88;;;19.59;49.92
59289;BME280;45056;47.602;9.886;2022-10-17T10:06:05;93832.72;;;19.64;50.25
59289;BME280;45056;47.602;9.886;2022-10-17T10:08:51;93831.84;;;19.72;50.61
59289;BME280;45056;47.602;9.886;2022-10-17T10:11:43;93837.44;;;19.78;50.61
59289;BME280;45056;47.602;9.886;2022-10-17T10:14:21;93843.34;;;19.86;50.31
59289;BME280;45056;47.602;9.886;2022-10-17T10:16:55;93837.44;;;19.93;50.29
59289;BME280;45056;47.602;9.886;2022-10-17T10:19:32;93848.09;;;20.00;50.82
59289;BME280;45056;47.602;9.886;2022-10-17T10:22:17;93843.41;;;20.07;50.30
59289;BME280;45056;47.602;9.886;2022-10-17T10:25:14;93844.03;;;20.16;49.86
59289;BME280;45056;47.602;9.886;2022-10-17T10:27:56;93851.69;;;20.27;49.31
59289;BME280;45056;47.602;9.886;2022-10-17T10:30:28;93851.84;;;20.39;48.55
59289;BME280;45056;47.602;9.886;2022-10-17T10:33:10;93850.72;;;20.51;47.74
59289;BME280;45056;47.602;9.886;2022-10-17T10:35:55;93851.16;;;20.65;47.33
59289;BME280;45056;47.602;9.886;2022-10-17T10:38:27;93859.38;;;20.80;46.67
59289;BME280;45056;47.602;9.886;2022-10-17T10:41:12;93858.50;;;20.94;45.94
59289;BME280;45056;47.602;9.886;2022-10-17T10:43:48;93854.13;;;21.08;45.42
59289;BME280;45056;47.602;9.886;2022-10-17T10:46:32;93848.22;;;21.21;44.73
59289;BME280;45056;47.602;9.886;2022-10-17T10:49:33;93852.09;;;21.35;44.50
59289;BME280;45056;47.602;9.886;2022-10-17T10:52:24;93856.47;;;21.47;44.09
59289;BME280;45056;47.602;9.886;2022-10-17T10:55:54;93856.16;;;21.66;44.32
59289;BME280;45056;47.602;9.886;2022-10-17T10:58:53;93855.22;;;21.81;43.99
59289;BME280;45056;47.602;9.886;2022-10-17T11:01:52;93859.09;;;21.95;42.75
59289;BME280;45056;47.602;9.886;2022-10-17T11:04:35;93860.72;;;22.07;42.41
59289;BME280;45056;47.602;9.886;2022-10-17T11:07:23;93853.97;;;22.19;42.29
59289;BME280;45056;47.602;9.886;2022-10-17T11:10:04;93857.56;;;22.31;41.31
59289;BME280;45056;47.602;9.886;2022-10-17T11:12:53;93854.63;;;22.46;39.77
59289;BME280;45056;47.602;9.886;2022-10-17T11:16:11;93856.69;;;22.57;38.78
59289;BME280;45056;47.602;9.886;2022-10-17T11:22:29;93853.75;;;22.78;37.65
59289;BME280;45056;47.602;9.886;2022-10-17T11:25:41;93848.22;;;22.89;37.18
59289;BME280;45056;47.602;9.886;2022-10-17T11:28:31;93851.75;;;22.96;37.33
59289;BME280;45056;47.602;9.886;2022-10-17T11:31:13;93845.97;;;23.05;37.73
59289;BME280;45056;47.602;9.886;2022-10-17T11:34:07;93853.81;;;23.12;37.93
59289;BME280;45056;47.602;9.886;2022-10-17T11:37:25;93847.50;;;23.17;38.23
59289;BME280;45056;47.602;9.886;2022-10-17T11:40:30;93849.31;;;23.26;38.14
59289;BME280;45056;47.602;9.886;2022-10-17T11:43:30;93852.84;;;23.32;38.27
59289;BME280;45056;47.602;9.886;2022-10-17T11:46:20;93846.81;;;23.40;38.83
59289;BME280;45056;47.602;9.886;2022-10-17T11:49:14;93842.78;;;23.46;39.10
59289;BME280;45056;47.602;9.886;2022-10-17T11:52:14;93843.00;;;23.54;39.04
59289;BME280;45056;47.602;9.886;2022-10-17T11:55:21;93851.59;;;23.62;39.02
59289;BME280;45056;47.602;9.886;2022-10-17T11:58:37;93850.09;;;23.72;39.86
59289;BME280;45056;47.602;9.886;2022-10-17T12:01:43;93854.84;;;23.83;41.74
59289;BME280;45056;47.602;9.886;2022-10-17T12:04:52;93851.06;;;23.92;42.43
59289;BME280;45056;47.602;9.886;2022-10-17T12:11:18;93851.59;;;24.08;42.89
59289;BME280;45056;47.602;9.886;2022-10-17T12:14:40;93845.50;;;24.15;42.92
59289;BME280;45056;47.602;9.886;2022-10-17T12:17:35;93849.00;;;24.21;43.11
59289;BME280;45056;47.602;9.886;2022-10-17T12:20:35;93852.28;;;24.25;42.91
59289;BME280;45056;47.602;9.886;2022-10-17T12:24:12;93843.41;;;24.32;42.87
59289;BME280;45056;47.602;9.886;2022-10-17T12:27:35;93843.16;;;24.36;42.39
59289;BME280;45056;47.602;9.886;2022-10-17T12:30:55;93832.25;;;24.44;42.68
59289;BME280;45056;47.602;9.886;2022-10-17T12:34:29;93835.00;;;24.55;41.22
59289;BME280;45056;47.602;9.886;2022-10-17T12:38:00;93831.41;;;24.66;40.93
59289;BME280;45056;47.602;9.886;2022-10-17T12:41:02;93833.91;;;24.75;40.58
59289;BME280;45056;47.602;9.886;2022-10-17T12:46:54;93832.38;;;24.80;39.22
59289;BME280;45056;47.602;9.886;2022-10-17T12:49:42;93830.09;;;24.78;39.53
59289;BME280;45056;47.602;9.886;2022-10-17T12:55:26;93832.66;;;24.71;40.07
59289;BME280;45056;47.602;9.886;2022-10-17T12:58:00;93835.19;;;24.74;40.02
59289;BME280;45056;47.602;9.886;2022-10-17T13:00:34;93837.94;;;24.80;40.38
59289;BME280;45056;47.602;9.886;2022-10-17T13:03:14;93832.38;;;24.86;39.76
59289;BME280;45056;47.602;9.886;2022-10-17T13:05:49;93831.56;;;24.91;39.29
59289;BME280;45056;47.602;9.886;2022-10-17T13:08:22;93836.59;;;24.92;40.14
59289;BME280;45056;47.602;9.886;2022-10-17T13:10:56;93829.75;;;24.93;40.49
59289;BME280;45056;47.602;9.886;2022-10-17T13:13:35;93824.19;;;24.93;39.99
59289;BME280;45056;47.602;9.886;2022-10-17T13:16:08;93824.50;;;24.90;39.41
59289;BME280;45056;47.602;9.886;2022-10-17T13:18:53;93824.53;;;24.78;39.82
59289;BME280;45056;47.602;9.886;2022-10-17T13:21:24;93829.88;;;24.71;40.26
59289;BME280;45056;47.602;9.886;2022-10-17T13:23:53;93830.66;;;24.66;40.46
59289;BME280;45056;47.602;9.886;2022-10-17T13:26:23;93826.09;;;24.62;40.19
59289;BME280;45056;47.602;9.886;2022-10-17T13:29:03;93820.59;;;24.57;39.20
59289;BME280;45056;47.602;9.886;2022-10-17T13:31:35;93821.38;;;24.52;39.74
59289;BME280;45056;47.602;9.886;2022-10-17T13:34:14;93818.59;;;24.52;40.08
59289;BME280;45056;47.602;9.886;2022-10-17T13:36:47;93825.16;;;24.48;39.67
59289;BME280;45056;47.602;9.886;2022-10-17T13:39:21;93834.03;;;24.47;39.82
59289;BME280;45056;47.602;9.886;2022-10-17T13:41:53;93830.72;;;24.48;40.35
59289;BME280;45056;47.602;9.886;2022-10-17T13:44:25;93828.69;;;24.49;41.01
59289;BME280;45056;47.602;9.886;2022-10-17T13:46:59;93833.00;;;24.50;40.88
59289;BME280;45056;47.602;9.886;2022-10-17T13:49:33;93835.53;;;24.48;40.74
59289;BME280;45056;47.602;9.886;2022-10-17T13:52:14;93836.56;;;24.45;40.72
59289;BME280;45056;47.602;9.886;2022-10-17T13:54:47;93851.00;;;24.38;40.19
59289;BME280;45056;47.602;9.886;2022-10-17T13:57:19;93846.47;;;24.29;40.03
59289;BME280;45056;47.602;9.886;2022-10-17T13:59:52;93848.03;;;24.18;40.07
59289;BME280;45056;47.602;9.886;2022-10-17T14:02:25;93842.72;;;24.09;40.45
59289;BME280;45056;47.602;9.886;2022-10-17T14:05:00;93844.25;;;23.99;40.99
59289;BME280;45056;47.602;9.886;2022-10-17T14:07:36;93852.84;;;23.89;41.60
59289;BME280;45056;47.602;9.886;2022-10-17T14:10:19;93848.06;;;23.78;42.12
59289;BME280;45056;47.602;9.886;2022-10-17T14:12:51;93841.47;;;23.70;42.53
59289;BME280;45056;47.602;9.886;2022-10-17T14:15:26;93840.47;;;23.62;43.34
59289;BME280;45056;47.602;9.886;2022-10-17T14:17:59;93845.03;;;23.54;43.94
59289;BME280;45056;47.602;9.886;2022-10-17T14:20:30;93844.28;;;23.47;44.35
59289;BME280;45056;47.602;9.886;2022-10-17T14:23:00;93842.75;;;23.41;44.82
59289;BME280;45056;47.602;9.886;2022-10-17T14:25:30;93838.72;;;23.36;45.15